createdAt,value
2023-01-29T00:01:22.631Z,59.82
2023-01-29T00:03:48.876Z,59.11
2023-01-29T00:06:15.145Z,58.77
2023-01-29T00:08:41.401Z,58.71
2023-01-29T00:11:07.637Z,59.14
2023-01-29T00:13:33.873Z,59.13
2023-01-29T00:16:00.154Z,59.32
2023-01-29T00:18:26.389Z,59.58
2023-01-29T00:20:52.647Z,59.57
2023-01-29T00:23:18.899Z,59.55
2023-01-29T00:25:45.153Z,59.42
2023-01-29T00:28:11.399Z,59.59
2023-01-29T00:30:37.628Z,59.77
2023-01-29T00:33:03.889Z,59.27
2023-01-29T00:35:30.164Z,58.64
2023-01-29T00:37:56.450Z,59.35
2023-01-29T00:40:22.706Z,59.66
2023-01-29T00:42:48.949Z,59.44
2023-01-29T00:45:15.189Z,59.37
2023-01-29T00:47:41.445Z,59.97
2023-01-29T00:50:07.696Z,60.18
2023-01-29T00:52:33.939Z,59.66
2023-01-29T00:55:00.203Z,59.01
2023-01-29T00:57:26.472Z,59.34
2023-01-29T00:59:52.788Z,59.41
2023-01-29T01:02:19.115Z,59.78
2023-01-29T01:04:45.467Z,59.56
2023-01-29T01:07:14.795Z,59.74
2023-01-29T01:09:41.067Z,60.14
2023-01-29T01:12:07.302Z,60.33
2023-01-29T01:14:33.562Z,60.39
2023-01-29T01:16:59.801Z,59.57
2023-01-29T01:19:26.030Z,59.64
2023-01-29T01:21:52.273Z,59.75
2023-01-29T01:24:18.603Z,60.06
2023-01-29T01:26:44.888Z,60.06
2023-01-29T01:29:11.202Z,60.03
2023-01-29T01:31:37.548Z,59.20
2023-01-29T01:34:03.816Z,59.47
2023-01-29T01:36:30.082Z,59.58
2023-01-29T01:38:56.391Z,59.39
2023-01-29T01:41:22.643Z,59.36
2023-01-29T01:43:48.910Z,59.54
2023-01-29T01:46:15.210Z,59.71
2023-01-29T01:48:41.508Z,60.14
2023-01-29T01:51:07.747Z,59.79
2023-01-29T01:53:33.998Z,59.82
2023-01-29T01:56:00.309Z,59.52
2023-01-29T01:58:26.595Z,59.80
2023-01-29T02:00:52.922Z,59.49
2023-01-29T02:03:19.220Z,60.05
2023-01-29T02:05:45.454Z,60.25
2023-01-29T02:08:11.747Z,60.39
2023-01-29T02:10:38.014Z,60.06
2023-01-29T02:13:04.269Z,59.77
2023-01-29T02:15:30.588Z,60.01
2023-01-29T02:17:56.902Z,60.42
2023-01-29T02:20:23.140Z,59.85
2023-01-29T02:22:49.447Z,59.65
2023-01-29T02:25:15.738Z,59.86
2023-01-29T02:27:41.981Z,59.32
2023-01-29T02:30:08.310Z,59.10
2023-01-29T02:32:34.611Z,59.24
2023-01-29T02:35:00.876Z,59.19
2023-01-29T02:37:27.103Z,59.38
2023-01-29T02:39:53.427Z,59.43
2023-01-29T02:42:19.714Z,59.27
2023-01-29T02:44:45.962Z,59.27
2023-01-29T02:47:12.216Z,60.19
2023-01-29T02:49:38.485Z,61.52
2023-01-29T02:52:04.728Z,61.81
2023-01-29T02:54:30.999Z,60.97
2023-01-29T02:56:57.238Z,60.47
2023-01-29T02:59:23.511Z,61.21
2023-01-29T03:01:49.807Z,59.99
2023-01-29T03:04:16.104Z,59.38
2023-01-29T03:06:42.347Z,59.45
2023-01-29T03:09:08.606Z,59.35
2023-01-29T03:11:34.878Z,59.09
2023-01-29T03:14:01.131Z,59.51
2023-01-29T03:16:27.454Z,59.54
2023-01-29T03:18:53.839Z,59.45
2023-01-29T03:21:20.119Z,59.01
2023-01-29T03:23:46.382Z,59.36
2023-01-29T03:26:12.635Z,59.14
2023-01-29T03:28:38.951Z,59.31
2023-01-29T03:31:05.601Z,59.17
2023-01-29T03:33:31.875Z,59.60
2023-01-29T03:35:58.163Z,59.13
2023-01-29T03:38:24.427Z,59.28
2023-01-29T03:40:50.693Z,59.26
2023-01-29T03:43:16.947Z,59.44
2023-01-29T03:45:43.262Z,59.27
2023-01-29T03:48:09.536Z,59.60
2023-01-29T03:50:35.862Z,59.25
2023-01-29T03:53:02.139Z,59.07
2023-01-29T03:55:28.364Z,59.55
2023-01-29T03:57:54.677Z,59.72
2023-01-29T04:00:20.939Z,60.82
2023-01-29T04:02:47.200Z,60.59
2023-01-29T04:05:13.501Z,59.77
2023-01-29T04:07:39.782Z,59.96
2023-01-29T04:10:06.030Z,59.79
2023-01-29T04:12:32.415Z,59.79
2023-01-29T04:14:58.692Z,60.14
2023-01-29T04:17:24.948Z,61.00
2023-01-29T04:19:51.227Z,61.11
2023-01-29T04:22:17.471Z,60.79
2023-01-29T04:24:43.711Z,60.36
2023-01-29T04:27:09.999Z,59.78
2023-01-29T04:29:36.290Z,59.59
2023-01-29T04:32:02.523Z,59.45
2023-01-29T04:34:28.837Z,59.30
2023-01-29T04:36:55.125Z,58.77
2023-01-29T04:39:21.383Z,59.11
2023-01-29T04:41:47.615Z,59.30
2023-01-29T04:44:13.912Z,58.63
2023-01-29T04:46:40.210Z,58.60
2023-01-29T04:49:06.507Z,58.21
2023-01-29T04:51:32.763Z,58.33
2023-01-29T04:53:59.023Z,58.90
2023-01-29T04:56:25.262Z,58.98
2023-01-29T04:58:51.552Z,60.33
2023-01-29T05:01:17.988Z,59.41
2023-01-29T05:03:44.332Z,59.43
2023-01-29T05:06:10.665Z,59.54
2023-01-29T05:08:36.946Z,59.32
2023-01-29T05:11:03.202Z,59.74
2023-01-29T05:13:29.518Z,59.89
2023-01-29T05:15:55.823Z,59.72
2023-01-29T05:18:22.106Z,59.13
2023-01-29T05:20:48.426Z,59.49
2023-01-29T05:23:14.712Z,59.24
2023-01-29T05:25:40.935Z,59.34
2023-01-29T05:28:07.179Z,59.57
2023-01-29T05:30:33.432Z,59.57
2023-01-29T05:32:59.719Z,59.46
2023-01-29T05:35:26.114Z,59.34
2023-01-29T05:37:52.504Z,59.62
2023-01-29T05:40:18.925Z,59.13
2023-01-29T05:42:45.296Z,59.19
2023-01-29T05:45:11.559Z,58.73
2023-01-29T05:47:37.804Z,58.94
2023-01-29T05:50:04.134Z,58.49
2023-01-29T05:52:30.416Z,59.19
2023-01-29T05:54:56.647Z,59.12
2023-01-29T05:57:22.937Z,59.50
2023-01-29T05:59:49.214Z,59.54
2023-01-29T06:02:15.465Z,60.08
2023-01-29T06:04:41.719Z,59.92
2023-01-29T06:07:07.958Z,59.73
2023-01-29T06:09:34.188Z,59.61
2023-01-29T06:12:00.487Z,60.40
2023-01-29T06:14:26.800Z,60.63
2023-01-29T06:16:53.044Z,60.66
2023-01-29T06:19:19.304Z,61.25
2023-01-29T06:21:45.539Z,60.66
2023-01-29T06:24:11.839Z,60.24
2023-01-29T06:26:38.133Z,60.34
2023-01-29T06:29:04.432Z,60.19
2023-01-29T06:31:38.681Z,59.76
2023-01-29T06:34:05.263Z,59.41
2023-01-29T06:36:31.525Z,59.71
2023-01-29T06:38:57.774Z,59.24
2023-01-29T06:41:24.095Z,59.28
2023-01-29T06:43:50.409Z,59.25
2023-01-29T06:46:16.672Z,59.30
2023-01-29T06:48:43.475Z,59.32
2023-01-29T06:51:09.763Z,59.60
2023-01-29T06:53:36.014Z,59.99
2023-01-29T06:56:02.251Z,59.51
2023-01-29T06:58:28.502Z,59.44
2023-01-29T07:00:54.786Z,60.02
2023-01-29T07:03:21.136Z,59.87
2023-01-29T07:05:47.415Z,60.08
2023-01-29T07:08:13.664Z,59.54
2023-01-29T07:10:39.971Z,59.58
2023-01-29T07:13:06.284Z,59.61
2023-01-29T07:15:32.526Z,60.31
2023-01-29T07:17:58.797Z,60.87
2023-01-29T07:20:25.046Z,60.74
2023-01-29T07:22:51.325Z,59.68
2023-01-29T07:25:17.644Z,59.19
2023-01-29T07:27:43.942Z,59.11
2023-01-29T07:30:10.177Z,58.95
2023-01-29T07:32:36.431Z,59.80
2023-01-29T07:35:02.667Z,58.87
2023-01-29T07:37:28.897Z,58.78
2023-01-29T07:39:55.191Z,58.64
2023-01-29T07:42:21.512Z,58.77
2023-01-29T07:44:47.769Z,58.17
2023-01-29T07:47:16.307Z,58.43
2023-01-29T07:49:43.330Z,58.04
2023-01-29T07:52:09.624Z,58.18
2023-01-29T07:54:35.894Z,57.30
2023-01-29T07:57:02.199Z,57.42
2023-01-29T07:59:28.512Z,57.23
2023-01-29T08:01:54.835Z,57.50
2023-01-29T08:04:21.083Z,57.55
2023-01-29T08:06:47.327Z,57.41
2023-01-29T08:09:13.570Z,57.12
2023-01-29T08:11:39.818Z,57.33
2023-01-29T08:14:06.084Z,57.11
2023-01-29T08:16:32.359Z,57.54
2023-01-29T08:18:58.746Z,57.81
2023-01-29T08:21:25.031Z,57.67
2023-01-29T08:23:51.281Z,57.03
2023-01-29T08:26:17.590Z,56.86
2023-01-29T08:28:43.883Z,56.90
2023-01-29T08:31:10.163Z,56.66
2023-01-29T08:33:39.291Z,57.07
2023-01-29T08:36:05.779Z,56.85
2023-01-29T08:38:32.025Z,56.17
2023-01-29T08:40:58.330Z,56.25
2023-01-29T08:43:24.612Z,56.03
2023-01-29T08:45:50.944Z,56.06
2023-01-29T08:48:17.301Z,56.07
2023-01-29T08:50:43.585Z,55.60
2023-01-29T08:53:09.839Z,55.76
2023-01-29T08:55:36.133Z,55.51
2023-01-29T08:58:02.433Z,54.97
2023-01-29T09:00:28.699Z,54.57
2023-01-29T09:02:55.023Z,54.44
2023-01-29T09:05:21.353Z,54.35
2023-01-29T09:07:47.604Z,54.52
2023-01-29T09:10:13.917Z,54.10
2023-01-29T09:12:40.253Z,54.02
2023-01-29T09:15:06.498Z,54.16
2023-01-29T09:17:32.840Z,53.81
2023-01-29T09:19:59.107Z,53.61
2023-01-29T09:22:25.357Z,52.97
2023-01-29T09:24:51.666Z,53.29
2023-01-29T09:27:17.962Z,52.63
2023-01-29T09:29:44.191Z,52.92
2023-01-29T09:32:10.436Z,52.90
2023-01-29T09:34:36.691Z,52.42
2023-01-29T09:37:02.964Z,52.15
2023-01-29T09:39:29.221Z,51.94
2023-01-29T09:41:55.482Z,51.93
2023-01-29T09:44:21.741Z,51.64
2023-01-29T09:46:48.008Z,51.70
2023-01-29T09:49:14.277Z,50.86
2023-01-29T09:51:40.542Z,50.48
2023-01-29T09:54:06.834Z,49.98
2023-01-29T09:56:33.128Z,50.06
2023-01-29T09:59:01.383Z,50.83
2023-01-29T10:01:28.045Z,50.38
2023-01-29T10:03:54.333Z,50.36
2023-01-29T10:06:20.574Z,50.33
2023-01-29T10:08:46.838Z,50.59
2023-01-29T10:11:13.098Z,51.03
2023-01-29T10:13:39.336Z,50.73
2023-01-29T10:16:05.600Z,50.63
2023-01-29T10:18:31.843Z,50.10
2023-01-29T10:20:58.074Z,49.70
2023-01-29T10:23:24.375Z,50.25
2023-01-29T10:25:50.645Z,50.11
2023-01-29T10:28:16.908Z,49.83
2023-01-29T10:30:43.268Z,50.21
2023-01-29T10:33:09.554Z,49.82
2023-01-29T10:35:35.827Z,49.73
2023-01-29T10:38:02.079Z,49.26
2023-01-29T10:40:28.307Z,49.57
2023-01-29T10:42:54.560Z,49.03
2023-01-29T10:45:20.960Z,49.00
2023-01-29T10:47:47.332Z,48.13
2023-01-29T10:50:13.656Z,48.32
2023-01-29T10:52:39.931Z,47.90
2023-01-29T10:55:06.210Z,47.95
2023-01-29T10:57:32.439Z,47.50
2023-01-29T10:59:58.864Z,47.60
2023-01-29T11:02:25.164Z,47.60
2023-01-29T11:04:51.440Z,48.59
2023-01-29T11:07:17.724Z,48.91
2023-01-29T11:09:46.149Z,48.91
2023-01-29T11:12:12.444Z,48.47
2023-01-29T11:14:38.694Z,48.83
2023-01-29T11:17:05.047Z,48.77
2023-01-29T11:19:31.383Z,48.61
2023-01-29T11:21:57.631Z,49.37
2023-01-29T11:24:23.947Z,49.46
2023-01-29T11:26:50.229Z,49.76
2023-01-29T11:29:16.468Z,49.79
2023-01-29T11:31:42.816Z,49.93
2023-01-29T11:34:09.115Z,49.42
2023-01-29T11:36:35.380Z,49.97
2023-01-29T11:39:01.627Z,50.54
2023-01-29T11:41:27.889Z,50.36
2023-01-29T11:43:54.143Z,50.47
2023-01-29T11:46:20.482Z,51.13
2023-01-29T11:48:46.797Z,50.88
2023-01-29T11:51:13.064Z,51.38
2023-01-29T11:53:42.288Z,52.20
2023-01-29T11:56:08.648Z,52.82
2023-01-29T11:58:34.889Z,52.46
2023-01-29T12:01:01.218Z,53.62
2023-01-29T12:03:27.550Z,54.52
2023-01-29T12:05:53.846Z,55.59
2023-01-29T12:08:20.143Z,55.83
2023-01-29T12:10:46.432Z,55.78
2023-01-29T12:13:12.674Z,55.26
2023-01-29T12:15:38.980Z,54.27
2023-01-29T12:18:05.314Z,53.83
2023-01-29T12:20:31.571Z,54.19
2023-01-29T12:22:57.874Z,55.31
2023-01-29T12:25:24.165Z,54.91
2023-01-29T12:27:50.448Z,54.83
2023-01-29T12:30:16.946Z,55.13
2023-01-29T12:32:43.375Z,54.57
2023-01-29T12:35:09.619Z,54.62
2023-01-29T12:37:35.940Z,54.48
2023-01-29T12:40:02.233Z,54.29
2023-01-29T12:42:28.487Z,54.31
2023-01-29T12:44:54.798Z,53.87
2023-01-29T12:47:21.050Z,53.73
2023-01-29T12:49:47.290Z,53.51
2023-01-29T12:52:13.754Z,52.99
2023-01-29T12:54:40.041Z,53.07
2023-01-29T12:57:06.286Z,52.98
2023-01-29T12:59:32.541Z,52.74
2023-01-29T13:01:58.797Z,52.41
2023-01-29T13:04:25.193Z,52.49
2023-01-29T13:06:51.464Z,52.20
2023-01-29T13:09:17.760Z,51.80
2023-01-29T13:11:44.036Z,52.10
2023-01-29T13:14:10.307Z,52.16
2023-01-29T13:16:36.647Z,52.31
2023-01-29T13:19:02.984Z,52.22
2023-01-29T13:21:29.298Z,52.14
2023-01-29T13:23:55.732Z,52.63
2023-01-29T13:26:22.074Z,52.71
2023-01-29T13:28:48.354Z,52.34
2023-01-29T13:31:14.606Z,52.32
2023-01-29T13:33:40.885Z,52.02
2023-01-29T13:36:07.164Z,52.01
2023-01-29T13:38:33.581Z,52.42
2023-01-29T13:40:59.881Z,52.30
2023-01-29T13:43:26.145Z,51.89
2023-01-29T13:45:52.461Z,52.04
2023-01-29T13:48:18.758Z,52.20
2023-01-29T13:50:45.005Z,52.20
2023-01-29T13:53:11.298Z,51.97
2023-01-29T13:55:37.599Z,51.98
2023-01-29T13:58:03.841Z,51.86
2023-01-29T14:00:30.687Z,51.84
2023-01-29T14:02:57.003Z,51.75
2023-01-29T14:05:23.244Z,51.49
2023-01-29T14:07:49.479Z,51.34
2023-01-29T14:10:15.737Z,51.83
2023-01-29T14:12:41.981Z,51.60
2023-01-29T14:15:08.238Z,51.70
2023-01-29T14:17:34.490Z,51.58
2023-01-29T14:20:00.745Z,51.19
2023-01-29T14:22:27.141Z,51.15
2023-01-29T14:24:53.439Z,51.02
2023-01-29T14:27:19.729Z,51.49
2023-01-29T14:29:45.965Z,51.37
2023-01-29T14:32:12.270Z,51.40
2023-01-29T14:34:38.571Z,51.69
2023-01-29T14:37:04.827Z,51.85
2023-01-29T14:39:31.264Z,51.47
2023-01-29T14:41:57.539Z,50.84
2023-01-29T14:44:23.791Z,50.59
2023-01-29T14:46:50.028Z,50.54
2023-01-29T14:49:16.280Z,50.67
2023-01-29T14:51:42.519Z,50.94
2023-01-29T14:54:08.863Z,51.37
2023-01-29T14:56:35.170Z,50.90
2023-01-29T14:59:01.403Z,52.58
2023-01-29T15:01:27.904Z,54.80
2023-01-29T15:03:54.191Z,55.86
2023-01-29T15:06:20.439Z,56.25
2023-01-29T15:08:46.745Z,55.63
2023-01-29T15:11:13.038Z,56.78
2023-01-29T15:13:39.280Z,57.54
2023-01-29T15:16:05.571Z,57.27
2023-01-29T15:18:31.896Z,59.55
2023-01-29T15:20:58.190Z,60.57
2023-01-29T15:23:24.424Z,60.01
2023-01-29T15:25:52.002Z,59.63
2023-01-29T15:28:18.249Z,59.03
2023-01-29T15:30:44.575Z,58.23
2023-01-29T15:33:10.932Z,57.60
2023-01-29T15:35:37.219Z,57.04
2023-01-29T15:38:03.469Z,56.67
2023-01-29T15:40:30.034Z,56.73
2023-01-29T15:42:56.297Z,57.02
2023-01-29T15:45:22.553Z,56.44
2023-01-29T15:47:51.640Z,56.27
2023-01-29T15:50:17.924Z,56.25
2023-01-29T15:52:44.192Z,55.90
2023-01-29T15:55:10.499Z,55.36
2023-01-29T15:57:36.795Z,55.81
2023-01-29T16:00:03.059Z,55.94
2023-01-29T16:02:29.385Z,56.54
2023-01-29T16:04:55.722Z,56.53
2023-01-29T16:07:21.998Z,56.98
2023-01-29T16:09:48.253Z,56.84
2023-01-29T16:12:14.484Z,56.51
2023-01-29T16:14:40.732Z,57.09
2023-01-29T16:17:07.032Z,57.39
2023-01-29T16:19:33.376Z,57.52
2023-01-29T16:21:59.663Z,57.38
2023-01-29T16:24:25.911Z,57.20
2023-01-29T16:26:52.230Z,57.28
2023-01-29T16:29:18.534Z,57.15
2023-01-29T16:31:44.887Z,57.36
2023-01-29T16:34:11.250Z,57.49
2023-01-29T16:36:37.553Z,57.29
2023-01-29T16:39:03.798Z,57.57
2023-01-29T16:41:30.033Z,57.55
2023-01-29T16:43:56.322Z,58.18
2023-01-29T16:46:22.692Z,57.96
2023-01-29T16:48:48.977Z,57.86
2023-01-29T16:51:17.143Z,58.01
2023-01-29T16:53:43.421Z,58.52
2023-01-29T16:56:09.661Z,59.66
2023-01-29T16:58:35.929Z,59.80
2023-01-29T17:01:02.212Z,59.61
2023-01-29T17:03:28.489Z,59.63
2023-01-29T17:05:54.747Z,60.17
2023-01-29T17:08:21.020Z,60.23
2023-01-29T17:10:47.265Z,60.14
2023-01-29T17:13:13.562Z,60.13
2023-01-29T17:15:39.802Z,59.30
2023-01-29T17:18:06.035Z,59.74
2023-01-29T17:20:32.293Z,59.33
2023-01-29T17:22:58.560Z,59.33
2023-01-29T17:25:24.806Z,59.58
2023-01-29T17:27:53.343Z,60.45
2023-01-29T17:30:19.676Z,60.66
2023-01-29T17:32:47.319Z,60.90
2023-01-29T17:35:13.928Z,60.65
2023-01-29T17:37:40.229Z,61.26
2023-01-29T17:40:06.457Z,62.13
2023-01-29T17:42:32.693Z,61.65
2023-01-29T17:44:59.013Z,60.46
2023-01-29T17:47:25.278Z,59.93
2023-01-29T17:49:51.508Z,60.01
2023-01-29T17:52:17.741Z,60.12
2023-01-29T17:54:44.012Z,60.70
2023-01-29T17:57:10.327Z,60.10
2023-01-29T17:59:36.592Z,60.14
2023-01-29T18:02:02.984Z,59.86
2023-01-29T18:04:29.292Z,60.12
2023-01-29T18:06:55.540Z,60.28
2023-01-29T18:09:21.855Z,60.94
2023-01-29T18:11:48.100Z,60.85
2023-01-29T18:14:14.780Z,60.44
2023-01-29T18:16:41.208Z,60.29
2023-01-29T18:19:07.513Z,59.79
2023-01-29T18:21:33.826Z,59.17
2023-01-29T18:24:00.110Z,59.79
2023-01-29T18:26:26.378Z,60.42
2023-01-29T18:28:52.691Z,60.08
2023-01-29T18:31:18.985Z,60.30
2023-01-29T18:33:45.269Z,61.41
2023-01-29T18:36:11.566Z,62.44
2023-01-29T18:38:37.854Z,62.01
2023-01-29T18:41:04.118Z,61.99
2023-01-29T18:43:30.388Z,62.49
2023-01-29T18:45:56.699Z,63.90
2023-01-29T18:48:23.071Z,64.37
2023-01-29T18:50:49.317Z,63.85
2023-01-29T18:53:15.625Z,63.83
2023-01-29T18:55:41.915Z,63.59
2023-01-29T18:58:27.116Z,63.70
2023-01-29T19:00:54.511Z,64.32
2023-01-29T19:03:20.999Z,63.51
2023-01-29T19:05:47.252Z,62.80
2023-01-29T19:08:13.764Z,62.22
2023-01-29T19:10:40.025Z,62.38
2023-01-29T19:13:06.739Z,63.10
2023-01-29T19:15:33.036Z,62.98
2023-01-29T19:17:59.316Z,62.78
2023-01-29T19:20:25.566Z,62.27
2023-01-29T19:22:53.582Z,62.45
2023-01-29T19:25:20.268Z,61.91
2023-01-29T19:27:46.821Z,61.98
2023-01-29T19:30:13.174Z,61.47
2023-01-29T19:32:39.452Z,61.31
2023-01-29T19:35:05.715Z,61.82
2023-01-29T19:37:31.975Z,61.24
2023-01-29T19:39:58.245Z,61.21
2023-01-29T19:42:24.478Z,61.22
2023-01-29T19:44:50.742Z,61.58
2023-01-29T19:47:17.011Z,61.96
2023-01-29T19:49:43.350Z,61.83
2023-01-29T19:52:09.596Z,62.07
2023-01-29T19:54:35.833Z,61.49
2023-01-29T19:57:02.071Z,61.44
2023-01-29T19:59:28.328Z,62.35
2023-01-29T20:01:54.590Z,62.03
2023-01-29T20:04:20.852Z,63.59
2023-01-29T20:06:47.147Z,62.88
2023-01-29T20:09:13.451Z,63.46
2023-01-29T20:11:39.678Z,63.25
2023-01-29T20:14:06.016Z,62.69
2023-01-29T20:16:32.352Z,62.17
2023-01-29T20:19:14.581Z,62.14
2023-01-29T20:21:41.255Z,61.74
2023-01-29T20:24:07.987Z,61.22
2023-01-29T20:26:34.294Z,60.81
2023-01-29T20:29:00.584Z,60.74
2023-01-29T20:31:26.905Z,60.38
2023-01-29T20:33:53.177Z,60.44
2023-01-29T20:36:19.577Z,60.98
2023-01-29T20:38:45.822Z,60.37
2023-01-29T20:41:12.090Z,60.58
2023-01-29T20:43:38.491Z,63.35
2023-01-29T20:46:04.816Z,63.35
2023-01-29T20:48:31.107Z,64.09
2023-01-29T20:50:57.353Z,63.54
2023-01-29T20:53:23.685Z,63.40
2023-01-29T20:55:50.067Z,63.46
2023-01-29T20:58:16.603Z,63.35
2023-01-29T21:00:42.918Z,62.87
2023-01-29T21:03:09.172Z,63.19
2023-01-29T21:05:35.467Z,63.04
2023-01-29T21:08:01.776Z,62.15
2023-01-29T21:10:28.025Z,61.55
2023-01-29T21:12:54.316Z,61.52
2023-01-29T21:15:20.634Z,62.15
2023-01-29T21:17:46.859Z,61.79
2023-01-29T21:20:13.088Z,61.51
2023-01-29T21:22:39.336Z,61.58
2023-01-29T21:25:05.631Z,61.76
2023-01-29T21:27:31.955Z,60.90
2023-01-29T21:29:58.214Z,60.98
2023-01-29T21:32:24.522Z,60.51
2023-01-29T21:34:52.582Z,60.28
2023-01-29T21:37:18.981Z,59.88
2023-01-29T21:39:45.307Z,59.82
2023-01-29T21:42:11.605Z,60.16
2023-01-29T21:44:37.836Z,60.11
2023-01-29T21:47:04.080Z,60.49
2023-01-29T21:49:30.539Z,60.79
2023-01-29T21:51:56.905Z,60.17
2023-01-29T21:54:23.170Z,60.25
2023-01-29T21:56:49.493Z,60.13
2023-01-29T21:59:15.801Z,60.31
2023-01-29T22:01:42.054Z,60.51
2023-01-29T22:04:08.342Z,60.47
2023-01-29T22:06:34.596Z,60.32
2023-01-29T22:09:00.825Z,59.99
2023-01-29T22:11:27.243Z,59.87
2023-01-29T22:13:53.551Z,60.01
2023-01-29T22:16:19.821Z,59.36
2023-01-29T22:18:46.142Z,60.13
2023-01-29T22:21:12.498Z,60.27
2023-01-29T22:23:38.778Z,61.88
2023-01-29T22:26:06.044Z,60.94
2023-01-29T22:28:32.330Z,61.70
2023-01-29T22:30:58.655Z,61.01
2023-01-29T22:33:24.924Z,60.93
2023-01-29T22:35:51.219Z,59.98
2023-01-29T22:38:17.499Z,60.45
2023-01-29T22:40:43.743Z,60.00
2023-01-29T22:43:09.983Z,59.86
2023-01-29T22:45:36.269Z,59.75
2023-01-29T22:48:02.545Z,59.71
2023-01-29T22:50:28.795Z,59.45
2023-01-29T22:52:55.073Z,59.32
2023-01-29T22:55:21.312Z,58.70
2023-01-29T22:57:47.556Z,58.94
2023-01-29T23:00:13.822Z,58.31
2023-01-29T23:02:40.093Z,58.84
2023-01-29T23:05:06.372Z,59.03
2023-01-29T23:07:32.647Z,59.14
2023-01-29T23:09:58.913Z,59.14
2023-01-29T23:12:25.160Z,58.78
2023-01-29T23:14:51.424Z,59.05
2023-01-29T23:17:17.665Z,58.79
2023-01-29T23:19:43.890Z,58.71
2023-01-29T23:22:10.142Z,59.41
2023-01-29T23:24:36.419Z,59.49
2023-01-29T23:27:02.667Z,59.77
2023-01-29T23:29:28.960Z,59.80
2023-01-29T23:31:55.249Z,59.82
2023-01-29T23:34:21.508Z,60.11
2023-01-29T23:36:47.753Z,60.23
2023-01-29T23:39:14.016Z,60.31
2023-01-29T23:41:40.265Z,60.14
2023-01-29T23:44:06.524Z,59.94
2023-01-29T23:46:32.832Z,60.28
2023-01-29T23:48:59.097Z,60.11
2023-01-29T23:51:25.456Z,59.48
2023-01-29T23:53:51.746Z,59.12
2023-01-29T23:56:18.003Z,59.27
2023-01-29T23:58:44.250Z,58.91
